Time;durP1;ratioP1;P1;durP2;ratioP2;P2;SDS_P1;SDS_P2;PMS_P1;PMS_P2;Temp;Humidity;BMP_temperature;BMP_pressure;BME280_temperature;BME280_humidity;BME280_pressure;Samples;Min_cycle;Max_cycle;Signal;HPM_P1;HPM_P2
2022/01/31 00:00:36;;;;;;;18.70;4.32;;;3.50;99.90;;;;;;5033942;28;20523;-44
2022/01/31 00:03:02;;;;;;;12.10;4.95;;;3.50;99.90;;;;;;5033342;28;20338;-41
2022/01/31 00:05:28;;;;;;;16.58;5.93;;;3.50;99.90;;;;;;5033767;28;20428;-43
2022/01/31 00:07:54;;;;;;;17.70;5.85;;;3.50;99.90;;;;;;5033504;28;20457;-42
2022/01/31 00:10:27;;;;;;;20.65;4.72;;;3.60;99.90;;;;;;5033202;28;20033;-45
2022/01/31 00:13:00;;;;;;;46.80;19.45;;;3.70;99.90;;;;;;5033095;28;20017;-45
2022/01/31 00:15:26;;;;;;;114.03;54.78;;;3.70;99.90;;;;;;5033581;28;20531;-43
2022/01/31 00:17:52;;;;;;;30.05;13.70;;;3.50;99.90;;;;;;5033282;28;20026;-42
2022/01/31 00:20:17;;;;;;;16.90;5.85;;;3.40;99.90;;;;;;5033530;28;20021;-46
2022/01/31 00:22:43;;;;;;;19.15;6.57;;;3.40;99.90;;;;;;5033219;28;20057;-45
2022/01/31 00:25:09;;;;;;;22.10;7.07;;;3.40;99.90;;;;;;5033235;28;20416;-42
2022/01/31 00:27:34;;;;;;;17.05;5.25;;;3.30;99.90;;;;;;5033225;28;20109;-44
2022/01/31 00:30:00;;;;;;;20.20;6.35;;;3.30;99.90;;;;;;5033036;28;20456;-46
2022/01/31 00:32:29;;;;;;;17.05;5.40;;;3.30;99.90;;;;;;5033161;28;20043;-44
2022/01/31 00:34:56;;;;;;;26.38;6.32;;;3.20;99.90;;;;;;5032514;28;20025;-43
2022/01/31 00:37:21;;;;;;;20.48;5.43;;;3.20;99.90;;;;;;5031689;28;20059;-46
2022/01/31 00:39:47;;;;;;;13.95;4.97;;;3.30;99.90;;;;;;5033088;28;20034;-46
2022/01/31 00:42:13;;;;;;;19.38;5.50;;;3.40;99.90;;;;;;5032762;28;20525;-41
2022/01/31 00:44:59;;;;;;;11.52;5.05;;;3.30;99.90;;;;;;5032640;28;20022;-48
2022/01/31 00:47:27;;;;;;;10.10;5.13;;;3.30;99.90;;;;;;5032039;28;20056;-40
2022/01/31 00:50:15;;;;;;;12.57;5.13;;;3.40;99.90;;;;;;5033161;28;20053;-46
2022/01/31 00:52:41;;;;;;;13.32;4.78;;;3.40;99.90;;;;;;5032667;28;20068;-46
2022/01/31 00:55:09;;;;;;;18.98;5.38;;;3.30;99.90;;;;;;5032708;28;20052;-46
2022/01/31 00:57:35;;;;;;;14.00;5.88;;;3.20;99.90;;;;;;5033171;28;20025;-45
2022/01/31 01:00:00;;;;;;;16.17;4.82;;;3.10;99.90;;;;;;5033461;28;20392;-43
2022/01/31 01:02:26;;;;;;;18.95;4.95;;;3.20;99.90;;;;;;5032857;28;20393;-47
2022/01/31 01:04:52;;;;;;;14.55;5.38;;;3.30;99.90;;;;;;5032729;28;20490;-46
2022/01/31 01:07:19;;;;;;;12.98;5.00;;;3.30;99.90;;;;;;5032573;28;20030;-42
2022/01/31 01:09:46;;;;;;;13.02;4.57;;;3.30;99.90;;;;;;5032598;28;20021;-44
2022/01/31 01:12:14;;;;;;;18.70;5.18;;;3.20;99.90;;;;;;5032482;28;20512;-42
2022/01/31 01:14:40;;;;;;;21.40;4.60;;;3.30;99.90;;;;;;5032701;28;20040;-43
2022/01/31 01:17:06;;;;;;;17.27;4.97;;;3.30;99.90;;;;;;5032281;28;20397;-44
2022/01/31 01:19:32;;;;;;;16.38;5.32;;;3.30;99.90;;;;;;5032067;28;20026;-41
2022/01/31 01:21:58;;;;;;;12.25;4.88;;;3.30;99.90;;;;;;5032167;28;20029;-44
2022/01/31 01:24:23;;;;;;;12.55;5.60;;;3.30;99.90;;;;;;5030633;28;20053;-47
2022/01/31 01:26:49;;;;;;;15.70;4.70;;;3.30;99.90;;;;;;5031902;28;20026;-42
2022/01/31 01:29:16;;;;;;;20.73;5.50;;;3.30;99.90;;;;;;5031938;28;20028;-44
2022/01/31 01:31:44;;;;;;;15.63;4.72;;;3.30;99.90;;;;;;5031838;28;20041;-43
2022/01/31 01:34:10;;;;;;;22.55;5.65;;;3.30;99.90;;;;;;5032135;28;20017;-47
2022/01/31 01:36:35;;;;;;;12.23;3.85;;;3.30;99.90;;;;;;5032263;28;20108;-44
2022/01/31 01:39:01;;;;;;;11.77;3.97;;;3.40;99.90;;;;;;5031778;28;20152;-48
2022/01/31 01:41:27;;;;;;;13.50;6.20;;;3.40;99.90;;;;;;5031737;28;20382;-44
2022/01/31 01:43:52;;;;;;;18.27;6.00;;;3.40;99.90;;;;;;5031576;28;20477;-45
2022/01/31 01:46:18;;;;;;;15.43;4.82;;;3.40;99.90;;;;;;5031837;28;20029;-43
2022/01/31 01:48:44;;;;;;;19.05;5.90;;;3.40;99.90;;;;;;5031807;28;20512;-43
2022/01/31 01:51:09;;;;;;;22.15;4.72;;;3.40;99.90;;;;;;5031888;28;20029;-42
2022/01/31 01:53:35;;;;;;;18.27;5.25;;;3.40;99.90;;;;;;5031412;28;20030;-42
2022/01/31 01:56:01;;;;;;;16.35;5.05;;;3.50;99.90;;;;;;5031841;28;20041;-46
2022/01/31 01:58:37;;;;;;;17.17;4.68;;;3.60;99.90;;;;;;5031513;28;20036;-45
2022/01/31 02:01:02;;;;;;;23.67;4.85;;;3.70;99.90;;;;;;5031401;28;20399;-44
2022/01/31 02:03:30;;;;;;;19.70;5.47;;;3.70;99.90;;;;;;5031652;28;20025;-45
2022/01/31 02:05:57;;;;;;;13.80;4.15;;;3.60;99.90;;;;;;5031864;28;20018;-47
2022/01/31 02:08:23;;;;;;;21.17;5.10;;;3.70;99.90;;;;;;5030405;28;20040;-47
2022/01/31 02:10:49;;;;;;;14.20;4.72;;;3.70;99.90;;;;;;5031086;28;20125;-44
2022/01/31 02:13:15;;;;;;;22.35;5.50;;;3.70;99.90;;;;;;5031748;28;20027;-45
2022/01/31 02:15:43;;;;;;;22.05;5.85;;;3.70;99.90;;;;;;5031810;28;20036;-42
2022/01/31 02:18:08;;;;;;;18.42;4.85;;;3.70;99.90;;;;;;5031748;28;20100;-45
2022/01/31 02:20:39;;;;;;;22.25;5.80;;;3.70;99.90;;;;;;5031690;28;20060;-44
2022/01/31 02:23:07;;;;;;;12.43;4.50;;;3.80;99.90;;;;;;5031172;28;20040;-43
2022/01/31 02:25:33;;;;;;;19.65;4.68;;;3.70;99.90;;;;;;5031175;28;20021;-45
2022/01/31 02:27:58;;;;;;;17.70;4.82;;;3.80;99.90;;;;;;5031662;28;20029;-43
2022/01/31 02:30:24;;;;;;;16.52;4.57;;;3.80;99.90;;;;;;5031345;28;20033;-44
2022/01/31 02:32:49;;;;;;;24.92;6.40;;;3.90;99.90;;;;;;5053083;23;20025;-46
2022/01/31 02:35:15;;;;;;;17.60;6.55;;;3.90;99.90;;;;;;5050577;28;20051;-45
2022/01/31 02:37:41;;;;;;;11.00;5.25;;;3.90;99.90;;;;;;5049678;28;20484;-44
2022/01/31 02:40:07;;;;;;;32.42;14.25;;;3.90;99.90;;;;;;5049575;28;20406;-46
2022/01/31 02:42:33;;;;;;;22.02;11.07;;;3.90;99.90;;;;;;5049733;28;20036;-47
2022/01/31 02:44:58;;;;;;;13.18;5.40;;;3.90;99.90;;;;;;5029509;28;20018;-50
2022/01/31 02:47:27;;;;;;;10.68;4.90;;;3.90;99.90;;;;;;5031001;28;20028;-47
2022/01/31 02:52:24;;;;;;;14.52;4.30;;;4.00;99.90;;;;;;5031230;28;20025;-45
2022/01/31 02:54:49;;;;;;;17.52;6.38;;;4.00;99.90;;;;;;5030430;28;20071;-45
2022/01/31 02:57:15;;;;;;;12.38;4.47;;;4.00;99.90;;;;;;5030897;28;20037;-45
2022/01/31 02:59:41;;;;;;;19.48;4.25;;;4.10;99.90;;;;;;5030525;28;20041;-45
2022/01/31 03:02:07;;;;;;;16.20;4.32;;;4.10;99.90;;;;;;5028904;28;20041;-44
2022/01/31 03:04:32;;;;;;;17.40;4.10;;;4.10;99.90;;;;;;5029203;28;20144;-47
2022/01/31 03:06:58;;;;;;;14.55;4.13;;;4.10;99.90;;;;;;5030909;28;20397;-49
2022/01/31 03:09:24;;;;;;;11.20;4.93;;;4.10;99.90;;;;;;5030202;28;20021;-51
2022/01/31 03:11:50;;;;;;;8.98;4.13;;;4.10;99.90;;;;;;5033711;28;20021;-47
2022/01/31 03:14:16;;;;;;;16.60;4.38;;;4.10;99.90;;;;;;5034081;28;20021;-48
2022/01/31 03:16:43;;;;;;;19.42;4.80;;;4.10;99.90;;;;;;5034493;28;20053;-47
2022/01/31 03:19:09;;;;;;;11.25;4.53;;;4.10;99.90;;;;;;5034327;28;20407;-45
2022/01/31 03:21:35;;;;;;;10.85;4.72;;;4.00;99.90;;;;;;5034197;28;20026;-47
2022/01/31 03:24:01;;;;;;;21.55;6.00;;;4.00;99.90;;;;;;5033934;28;20032;-45
2022/01/31 03:26:27;;;;;;;14.57;5.03;;;4.00;99.90;;;;;;5032972;28;20396;-48
2022/01/31 03:28:53;;;;;;;13.18;5.22;;;4.10;99.90;;;;;;5032938;28;20057;-49
2022/01/31 03:31:20;;;;;;;15.50;3.92;;;4.00;99.90;;;;;;5034043;28;20029;-51
2022/01/31 03:33:47;;;;;;;15.55;4.47;;;4.00;99.90;;;;;;5033715;28;20025;-45
2022/01/31 03:36:12;;;;;;;17.95;4.95;;;4.00;99.90;;;;;;5033953;28;20048;-46
2022/01/31 03:38:40;;;;;;;17.13;5.47;;;4.10;99.90;;;;;;5034086;28;20065;-45
2022/01/31 03:41:10;;;;;;;20.08;4.97;;;4.10;99.90;;;;;;5033936;28;20196;-46
2022/01/31 03:43:36;;;;;;;17.23;5.55;;;4.10;99.90;;;;;;5033644;28;20029;-46
2022/01/31 03:46:02;;;;;;;13.65;3.58;;;4.10;99.90;;;;;;5033997;28;20020;-50
2022/01/31 03:48:28;;;;;;;18.00;5.38;;;4.20;99.90;;;;;;5033775;28;20055;-47
2022/01/31 03:50:55;;;;;;;13.32;4.82;;;4.20;99.90;;;;;;5033774;28;20440;-47
2022/01/31 03:53:20;;;;;;;23.27;5.43;;;4.20;99.90;;;;;;5033494;28;20083;-45
2022/01/31 03:55:46;;;;;;;15.38;4.38;;;4.20;99.90;;;;;;5033656;28;20029;-46
2022/01/31 03:58:12;;;;;;;17.17;4.75;;;4.20;99.90;;;;;;5034267;28;20520;-45
2022/01/31 04:00:37;;;;;;;16.88;4.65;;;4.20;99.90;;;;;;5033548;28;20574;-45
2022/01/31 04:03:03;;;;;;;19.63;5.45;;;4.20;99.90;;;;;;5033323;28;20122;-45
2022/01/31 04:05:29;;;;;;;12.98;4.18;;;4.20;99.90;;;;;;5033618;28;20021;-47
2022/01/31 04:07:54;;;;;;;13.73;4.35;;;4.20;99.90;;;;;;5033860;28;20028;-46
2022/01/31 04:10:20;;;;;;;17.60;3.97;;;4.20;99.90;;;;;;5032986;28;20029;-45
2022/01/31 04:12:46;;;;;;;14.35;5.15;;;4.20;99.90;;;;;;5033021;28;20037;-48
2022/01/31 04:15:11;;;;;;;20.60;5.03;;;4.20;99.90;;;;;;5033384;28;20033;-48
2022/01/31 04:17:38;;;;;;;14.75;4.32;;;4.30;99.90;;;;;;5033421;28;20544;-47
2022/01/31 04:20:07;;;;;;;23.40;6.78;;;4.30;99.90;;;;;;5033265;28;20033;-45
2022/01/31 04:22:36;;;;;;;21.77;4.88;;;4.40;99.90;;;;;;5031682;28;20523;-49
2022/01/31 04:25:05;;;;;;;16.60;4.50;;;4.40;99.90;;;;;;5032935;28;20032;-50
2022/01/31 04:27:43;;;;;;;24.58;4.57;;;4.40;99.90;;;;;;5033050;28;20161;-46
2022/01/31 04:30:11;;;;;;;13.68;4.47;;;4.50;99.90;;;;;;5033160;28;20109;-44
2022/01/31 04:32:37;;;;;;;14.95;4.65;;;4.50;99.90;;;;;;5032991;28;20025;-47
2022/01/31 04:35:03;;;;;;;16.50;4.15;;;4.60;99.90;;;;;;5033037;28;20044;-45
2022/01/31 04:37:28;;;;;;;12.98;4.28;;;4.50;99.90;;;;;;5034440;28;20033;-45
2022/01/31 04:39:54;;;;;;;21.27;4.25;;;4.60;99.90;;;;;;5034448;28;20093;-49
2022/01/31 04:42:19;;;;;;;12.63;4.57;;;4.60;99.90;;;;;;5033885;28;20143;-46
2022/01/31 04:44:45;;;;;;;17.95;5.03;;;4.60;99.90;;;;;;5033151;28;20100;-46
2022/01/31 04:47:11;;;;;;;15.02;4.15;;;4.60;99.90;;;;;;5033797;28;20026;-45
2022/01/31 04:49:36;;;;;;;19.73;5.20;;;4.60;99.90;;;;;;5032839;28;20029;-48
2022/01/31 04:52:03;;;;;;;15.43;4.38;;;4.60;99.90;;;;;;5032853;28;20656;-46
2022/01/31 04:54:28;;;;;;;22.10;5.00;;;4.60;99.90;;;;;;5032209;28;20025;-45
2022/01/31 04:56:54;;;;;;;15.52;5.28;;;4.60;99.90;;;;;;5031502;28;20024;-49
2022/01/31 04:59:19;;;;;;;18.15;5.03;;;4.70;99.90;;;;;;5032695;28;20025;-47
2022/01/31 05:01:47;;;;;;;13.73;4.85;;;4.60;99.90;;;;;;5032868;28;20022;-47
2022/01/31 05:04:13;;;;;;;16.55;5.22;;;4.60;99.90;;;;;;5032785;28;20041;-44
2022/01/31 05:06:40;;;;;;;20.10;5.43;;;4.60;99.90;;;;;;5032910;28;20041;-47
2022/01/31 05:09:07;;;;;;;19.17;6.75;;;4.60;99.90;;;;;;5032516;28;20021;-46
2022/01/31 05:11:32;;;;;;;19.20;4.93;;;4.50;99.90;;;;;;5032489;28;20022;-47
2022/01/31 05:13:58;;;;;;;13.80;4.65;;;4.50;99.90;;;;;;5032050;28;20071;-47
2022/01/31 05:16:24;;;;;;;14.30;4.95;;;4.50;99.90;;;;;;5032361;28;20489;-45
2022/01/31 05:18:49;;;;;;;18.95;6.72;;;4.50;99.90;;;;;;5032279;28;20439;-47
2022/01/31 05:21:15;;;;;;;15.95;4.80;;;4.50;99.90;;;;;;5032027;28;20038;-46
2022/01/31 05:23:40;;;;;;;17.40;5.68;;;4.50;99.90;;;;;;5032303;28;20029;-46
2022/01/31 05:26:06;;;;;;;19.45;5.68;;;4.50;99.90;;;;;;5032249;28;20504;-45
2022/01/31 05:28:32;;;;;;;25.30;5.95;;;4.40;99.90;;;;;;5031983;28;20509;-46
2022/01/31 05:30:57;;;;;;;17.67;5.80;;;4.40;99.90;;;;;;5030602;28;20040;-45
2022/01/31 05:33:23;;;;;;;18.48;5.35;;;4.40;99.90;;;;;;5030938;28;20029;-46
2022/01/31 05:35:49;;;;;;;16.77;5.07;;;4.40;99.90;;;;;;5032427;28;20032;-46
2022/01/31 05:38:14;;;;;;;15.98;5.68;;;4.40;99.90;;;;;;5032533;28;20029;-45
2022/01/31 05:40:40;;;;;;;17.05;4.43;;;4.40;99.90;;;;;;5030274;28;20452;-47
2022/01/31 05:43:05;;;;;;;17.08;4.47;;;4.40;99.90;;;;;;5031738;28;20028;-46
2022/01/31 05:45:31;;;;;;;14.10;4.70;;;4.40;99.90;;;;;;5031828;28;20097;-48
2022/01/31 05:47:57;;;;;;;17.05;5.15;;;4.40;99.90;;;;;;5031729;28;20452;-45
2022/01/31 05:50:23;;;;;;;13.02;4.07;;;4.40;99.90;;;;;;5031531;28;20018;-45
2022/01/31 05:52:48;;;;;;;13.70;4.82;;;4.40;99.90;;;;;;5031166;28;20040;-50
2022/01/31 05:55:14;;;;;;;15.15;4.65;;;4.40;99.90;;;;;;5031704;28;20116;-45
2022/01/31 05:57:42;;;;;;;12.50;4.75;;;4.40;99.90;;;;;;5031530;28;20025;-45
2022/01/31 06:00:08;;;;;;;16.13;5.28;;;4.40;99.90;;;;;;5030223;28;20072;-45
2022/01/31 06:02:35;;;;;;;13.98;4.70;;;4.40;99.90;;;;;;5031535;28;20068;-45
2022/01/31 06:05:02;;;;;;;13.68;4.55;;;4.40;99.90;;;;;;5031338;28;20432;-49
2022/01/31 06:07:28;;;;;;;11.90;4.65;;;4.50;99.90;;;;;;5031383;28;20022;-45
2022/01/31 06:09:53;;;;;;;10.70;3.78;;;4.50;99.90;;;;;;5031348;28;20080;-47
2022/01/31 06:12:19;;;;;;;10.32;4.03;;;4.50;99.90;;;;;;5031442;28;20104;-48
2022/01/31 06:14:44;;;;;;;5.72;3.28;;;4.50;99.90;;;;;;5031038;28;20044;-44
2022/01/31 06:17:10;;;;;;;9.30;3.33;;;4.60;99.90;;;;;;5031249;28;20057;-46
2022/01/31 06:19:36;;;;;;;10.30;3.25;;;;;;;;;;5031534;28;20033;-45
2022/01/31 06:22:02;;;;;;;13.15;3.60;;;4.40;99.90;;;;;;5029975;28;20064;-49
2022/01/31 06:24:27;;;;;;;7.40;3.25;;;4.60;99.90;;;;;;5030895;28;20483;-47
2022/01/31 06:26:53;;;;;;;15.10;3.53;;;4.60;99.90;;;;;;5031444;28;20025;-47
2022/01/31 06:29:19;;;;;;;7.93;3.47;;;4.50;99.90;;;;;;5031249;28;20047;-46
2022/01/31 06:31:45;;;;;;;11.18;4.20;;;4.60;99.90;;;;;;5031137;28;20029;-44
2022/01/31 06:34:10;;;;;;;8.10;3.58;;;4.50;99.90;;;;;;5030805;28;20048;-49
2022/01/31 06:36:36;;;;;;;5.25;3.05;;;4.50;99.90;;;;;;5031402;28;20037;-51
2022/01/31 06:39:01;;;;;;;4.22;2.90;;;4.60;99.90;;;;;;5029906;28;20199;-45
2022/01/31 06:41:28;;;;;;;6.47;2.97;;;4.50;99.90;;;;;;5031005;28;20393;-46
2022/01/31 06:43:54;;;;;;;4.18;3.10;;;4.50;99.90;;;;;;5030817;28;20017;-45
2022/01/31 06:46:20;;;;;;;5.55;3.05;;;4.50;99.90;;;;;;5033695;28;20353;-47
2022/01/31 06:48:45;;;;;;;5.88;2.83;;;4.50;99.90;;;;;;5034932;28;20022;-45
2022/01/31 06:51:11;;;;;;;8.73;3.53;;;4.50;99.90;;;;;;5034902;28;20021;-48
2022/01/31 06:53:37;;;;;;;4.32;2.90;;;4.50;99.90;;;;;;5034391;28;20048;-47
2022/01/31 06:56:03;;;;;;;9.20;3.13;;;4.50;99.90;;;;;;5034834;28;20029;-46
2022/01/31 06:58:28;;;;;;;5.50;4.05;;;4.50;99.90;;;;;;5034768;28;20503;-47
2022/01/31 07:00:54;;;;;;;3.97;2.47;;;4.50;99.90;;;;;;5034544;28;20041;-42
2022/01/31 07:03:20;;;;;;;4.50;2.75;;;4.50;99.90;;;;;;5034349;28;20071;-45
2022/01/31 07:05:46;;;;;;;5.38;2.40;;;4.50;99.90;;;;;;5034582;28;20034;-46
2022/01/31 07:08:12;;;;;;;6.63;2.22;;;4.50;99.90;;;;;;5034729;28;20109;-47
2022/01/31 07:10:38;;;;;;;3.90;2.45;;;4.50;99.90;;;;;;5034295;28;20044;-47
2022/01/31 07:13:23;;;;;;;8.43;2.28;;;4.50;99.90;;;;;;5034308;28;20036;-47
2022/01/31 07:15:48;;;;;;;5.65;2.95;;;4.50;99.90;;;;;;5034525;28;20396;-45
2022/01/31 07:18:14;;;;;;;5.53;3.05;;;4.50;99.90;;;;;;5034458;28;20025;-49
2022/01/31 07:20:42;;;;;;;5.57;2.45;;;4.50;99.90;;;;;;5034026;28;20030;-46
2022/01/31 07:23:18;;;;;;;7.18;2.83;;;4.40;99.90;;;;;;5034042;28;20013;-47
2022/01/31 07:25:43;;;;;;;5.50;1.98;;;4.50;99.90;;;;;;5034221;28;20078;-46
2022/01/31 07:28:11;;;;;;;1.95;1.75;;;4.40;99.90;;;;;;5034430;28;20021;-46
2022/01/31 07:30:40;;;;;;;1.92;1.80;;;4.50;99.90;;;;;;5034069;28;20025;-53
2022/01/31 07:33:09;;;;;;;3.63;2.33;;;4.50;99.90;;;;;;5033820;28;20113;-46
2022/01/31 07:35:35;;;;;;;5.05;2.55;;;4.50;99.90;;;;;;5034106;28;20029;-46
2022/01/31 07:38:02;;;;;;;4.68;2.22;;;4.50;99.90;;;;;;5033902;28;20052;-48
2022/01/31 07:40:28;;;;;;;3.00;1.92;;;4.50;99.90;;;;;;5034179;28;20033;-44
2022/01/31 07:42:53;;;;;;;4.53;2.25;;;4.60;99.90;;;;;;5033655;28;20387;-48
2022/01/31 07:45:19;;;;;;;7.25;2.17;;;4.60;99.90;;;;;;5033107;28;20025;-49
2022/01/31 07:47:45;;;;;;;3.25;1.90;;;4.60;99.90;;;;;;5030236;28;20021;-48
2022/01/31 07:50:11;;;;;;;2.70;1.58;;;4.70;99.90;;;;;;5033757;28;20029;-49
2022/01/31 07:52:37;;;;;;;2.85;1.75;;;4.70;99.90;;;;;;5033166;28;20083;-46
2022/01/31 07:55:05;;;;;;;3.13;2.30;;;4.80;99.90;;;;;;5033414;28;20084;-49
2022/01/31 07:57:30;;;;;;;3.67;1.70;;;4.80;99.90;;;;;;5033073;28;20028;-48
2022/01/31 07:59:56;;;;;;;3.50;1.58;;;4.80;99.90;;;;;;5033726;28;20567;-48
2022/01/31 08:02:21;;;;;;;4.22;1.10;;;4.80;99.90;;;;;;5033706;28;20481;-52
2022/01/31 08:04:47;;;;;;;2.58;1.60;;;4.90;99.90;;;;;;5032597;28;20116;-47
2022/01/31 08:07:12;;;;;;;2.92;1.67;;;5.00;99.90;;;;;;5033135;28;20440;-49
2022/01/31 08:09:39;;;;;;;1.65;1.55;;;5.00;99.90;;;;;;5015345;28;20049;-47
2022/01/31 08:12:05;;;;;;;2.75;1.75;;;5.00;99.90;;;;;;5018465;28;20021;-51
2022/01/31 08:14:31;;;;;;;2.58;1.65;;;5.00;99.90;;;;;;5032064;28;20377;-45
2022/01/31 08:16:57;;;;;;;3.22;1.92;;;5.00;99.90;;;;;;5033267;28;20083;-48
2022/01/31 08:19:22;;;;;;;2.53;1.58;;;5.00;99.90;;;;;;5032032;28;20060;-47
2022/01/31 08:21:48;;;;;;;4.55;2.17;;;5.00;99.90;;;;;;5032479;28;20504;-47
2022/01/31 08:24:13;;;;;;;4.10;1.70;;;5.00;99.90;;;;;;5020763;28;20026;-45
2022/01/31 08:26:39;;;;;;;2.60;1.40;;;5.10;99.90;;;;;;5013391;28;20044;-48
2022/01/31 08:29:19;;;;;;;2.90;1.70;;;5.10;99.90;;;;;;5030657;28;20014;-45
2022/01/31 08:31:47;;;;;;;5.93;1.98;;;5.10;99.90;;;;;;5032782;28;20071;-46
2022/01/31 08:36:42;;;;;;;3.97;1.40;;;5.10;99.90;;;;;;5032509;28;20143;-44
2022/01/31 08:39:17;;;;;;;4.43;2.05;;;5.20;99.90;;;;;;5016824;28;20026;-47
2022/01/31 08:41:45;;;;;;;4.75;1.73;;;5.20;99.90;;;;;;5032445;28;20025;-45
2022/01/31 08:44:13;;;;;;;2.58;1.17;;;5.20;99.90;;;;;;5032163;28;20033;-46
2022/01/31 08:46:39;;;;;;;1.63;1.30;;;5.20;99.90;;;;;;5033207;28;20029;-46
2022/01/31 08:49:06;;;;;;;3.42;1.55;;;5.30;99.90;;;;;;5032802;28;20026;-48
2022/01/31 08:51:32;;;;;;;2.67;1.77;;;5.30;99.90;;;;;;5032665;28;20033;-48
2022/01/31 08:53:58;;;;;;;1.65;1.55;;;5.40;99.90;;;;;;5031724;28;20111;-46
2022/01/31 08:56:23;;;;;;;3.05;1.73;;;5.40;99.90;;;;;;5032887;28;20053;-47
2022/01/31 08:58:49;;;;;;;3.10;2.40;;;5.40;99.90;;;;;;5032665;28;20026;-49
2022/01/31 09:01:23;;;;;;;3.92;2.22;;;5.40;99.90;;;;;;5032226;28;20030;-47
2022/01/31 09:06:25;;;;;;;5.68;2.00;;;5.50;99.90;;;;;;5032252;28;20018;-47
2022/01/31 09:08:51;;;;;;;8.32;1.60;;;5.50;99.90;;;;;;5031321;28;20028;-46
2022/01/31 09:11:17;;;;;;;1.85;1.40;;;5.50;99.90;;;;;;5032187;28;20029;-45
2022/01/31 09:13:43;;;;;;;2.40;1.48;;;5.50;99.90;;;;;;5031759;28;20032;-46
2022/01/31 09:16:09;;;;;;;2.72;1.48;;;5.60;99.90;;;;;;5032056;28;20021;-48
2022/01/31 09:18:34;;;;;;;7.07;2.70;;;5.70;99.90;;;;;;5032240;28;20378;-45
2022/01/31 09:21:01;;;;;;;2.38;1.67;;;5.80;99.90;;;;;;5031920;28;20029;-47
2022/01/31 09:23:28;;;;;;;2.92;1.02;;;5.80;99.90;;;;;;5031743;28;20098;-47
2022/01/31 09:25:55;;;;;;;8.30;2.30;;;5.80;99.90;;;;;;5032084;28;20519;-46
2022/01/31 09:28:20;;;;;;;7.35;1.77;;;5.90;99.90;;;;;;5031939;28;20029;-51
2022/01/31 09:30:47;;;;;;;8.98;2.95;;;5.90;99.90;;;;;;5031868;28;20026;-46
2022/01/31 09:33:14;;;;;;;3.88;1.52;;;5.90;99.90;;;;;;5031111;28;20033;-51
2022/01/31 09:35:40;;;;;;;6.50;1.52;;;5.90;99.90;;;;;;5031939;28;20244;-45
2022/01/31 09:38:08;;;;;;;6.88;1.90;;;5.90;99.90;;;;;;5031934;28;20029;-50
2022/01/31 09:40:35;;;;;;;5.00;1.65;;;5.90;99.90;;;;;;5031973;28;20071;-47
2022/01/31 09:48:33;;;;;;;3.50;1.77;;;6.00;99.90;;;;;;5032077;28;20030;-47
2022/01/31 09:51:08;;;;;;;4.25;1.88;;;6.00;99.90;;;;;;5031869;28;20021;-51
2022/01/31 09:53:38;;;;;;;3.03;1.45;;;6.10;99.90;;;;;;5031459;28;20018;-49
2022/01/31 09:56:08;;;;;;;1.33;1.23;;;6.20;99.90;;;;;;5030666;28;20037;-50
2022/01/31 09:58:34;;;;;;;7.40;1.92;;;6.30;99.90;;;;;;5031773;28;20026;-50
2022/01/31 10:01:02;;;;;;;2.55;1.27;;;6.30;99.90;;;;;;5030126;28;20029;-45
2022/01/31 10:03:28;;;;;;;6.18;1.35;;;6.30;99.90;;;;;;5024549;28;20033;-49
2022/01/31 10:05:53;;;;;;;4.00;1.10;;;6.30;99.90;;;;;;5011880;28;20076;-47
2022/01/31 10:08:19;;;;;;;1.73;1.20;;;;;;;;;;5024501;28;20033;-49
2022/01/31 10:10:47;;;;;;;4.85;2.25;;;6.30;99.90;;;;;;5031300;28;20029;-51
2022/01/31 10:16:28;;;;;;;3.75;1.45;;;6.50;99.90;;;;;;5021184;28;20037;-48
2022/01/31 10:19:09;;;;;;;2.03;1.30;;;6.50;99.90;;;;;;5018572;28;20018;-45
2022/01/31 10:21:56;;;;;;;4.18;1.30;;;6.60;99.90;;;;;;5016139;28;20112;-45
2022/01/31 10:24:22;;;;;;;2.78;1.13;;;6.80;99.90;;;;;;5034819;28;20025;-45
2022/01/31 10:26:48;;;;;;;2.13;1.90;;;7.30;99.90;;;;;;5034856;28;20498;-47
2022/01/31 10:29:18;;;;;;;3.72;1.20;;;7.50;99.90;;;;;;5019588;28;20061;-50
2022/01/31 10:31:57;;;;;;;2.72;1.25;;;7.50;99.90;;;;;;5018483;28;20029;-43
2022/01/31 10:34:25;;;;;;;2.53;1.23;;;7.30;99.90;;;;;;5034923;28;20404;-47
2022/01/31 10:36:52;;;;;;;3.30;1.20;;;7.20;99.90;;;;;;5035072;28;20060;-47
2022/01/31 10:53:15;;;;;;;7.22;1.27;;;7.00;99.90;;;;;;5034426;28;20025;-52
2022/01/31 10:55:41;;;;;;;2.45;1.30;;;6.80;99.90;;;;;;5035074;28;20018;-51
2022/01/31 10:58:09;;;;;;;6.72;1.25;;;6.80;99.90;;;;;;5034206;28;20010;-46
2022/01/31 11:00:37;;;;;;;2.80;1.10;;;6.80;99.90;;;;;;5031919;28;20032;-49
2022/01/31 11:03:40;;;;;;;5.70;2.38;;;6.80;99.90;;;;;;5032304;28;20501;-45
2022/01/31 11:06:10;;;;;;;2.10;1.50;;;6.90;99.90;;;;;;5033008;28;20029;-47
2022/01/31 11:08:36;;;;;;;3.75;1.17;;;6.90;99.90;;;;;;5034327;28;20030;-52
2022/01/31 11:11:02;;;;;;;3.20;0.90;;;7.10;99.90;;;;;;5049707;28;20508;-48
2022/01/31 11:13:31;;;;;;;4.28;1.05;;;7.10;99.90;;;;;;5034147;28;20076;-51
2022/01/31 11:15:57;;;;;;;1.90;0.90;;;7.10;99.90;;;;;;5034523;28;20477;-53
2022/01/31 11:18:24;;;;;;;2.47;1.02;;;7.00;99.90;;;;;;5034347;28;20087;-52
2022/01/31 11:20:56;;;;;;;2.30;0.88;;;6.90;99.90;;;;;;5034351;28;20025;-48
2022/01/31 11:23:25;;;;;;;3.55;1.83;;;6.80;99.90;;;;;;5034260;28;20107;-51
2022/01/31 11:25:56;;;;;;;3.65;0.90;;;6.70;99.90;;;;;;5034170;28;20026;-51
2022/01/31 11:28:22;;;;;;;3.40;0.80;;;6.70;99.90;;;;;;5034269;28;20025;-49
2022/01/31 11:30:48;;;;;;;1.70;1.00;;;6.60;99.90;;;;;;5033318;28;20068;-50
2022/01/31 11:33:15;;;;;;;2.72;0.93;;;6.70;99.90;;;;;;5034257;28;20060;-50
2022/01/31 11:35:41;;;;;;;3.60;2.15;;;6.60;99.90;;;;;;5030156;28;20492;-46
2022/01/31 11:38:06;;;;;;;2.00;0.90;;;6.60;99.90;;;;;;5034087;28;20036;-49
2022/01/31 11:40:32;;;;;;;3.58;1.00;;;6.60;99.90;;;;;;5034576;28;20026;-46
2022/01/31 11:42:59;;;;;;;3.25;0.73;;;6.60;99.90;;;;;;5033582;28;20025;-51
2022/01/31 11:45:29;;;;;;;3.35;0.90;;;6.50;99.90;;;;;;5034327;28;20396;-50
2022/01/31 11:47:58;;;;;;;3.00;0.65;;;6.50;99.90;;;;;;5034853;28;20017;-52
2022/01/31 11:50:24;;;;;;;2.33;0.80;;;6.50;99.90;;;;;;5034270;28;20022;-51
2022/01/31 11:52:55;;;;;;;4.13;0.80;;;6.40;99.90;;;;;;5049155;28;20124;-45
2022/01/31 11:55:24;;;;;;;2.42;0.70;;;6.40;99.90;;;;;;5033906;28;20033;-46
2022/01/31 11:57:53;;;;;;;5.20;2.35;;;6.30;99.90;;;;;;5033706;28;20033;-49
2022/01/31 12:00:26;;;;;;;0.70;0.65;;;6.30;99.90;;;;;;5034075;28;20034;-48
2022/01/31 12:03:07;;;;;;;3.60;1.23;;;6.30;99.90;;;;;;5027382;28;20025;-47
2022/01/31 12:05:36;;;;;;;2.45;1.00;;;6.30;99.90;;;;;;5032432;28;20057;-49
2022/01/31 12:08:18;;;;;;;3.10;2.25;;;6.30;99.90;;;;;;5033676;28;20065;-48
2022/01/31 12:10:52;;;;;;;0.90;0.70;;;6.30;99.90;;;;;;5033673;28;20057;-47
2022/01/31 12:13:58;;;;;;;3.13;0.80;;;6.30;99.90;;;;;;5033081;28;20018;-50
2022/01/31 12:17:07;;;;;;;1.17;0.60;;;6.30;99.90;;;;;;4953034;29;20023;-51
2022/01/31 12:22:08;;;;;;;1.15;0.80;;;6.30;99.90;;;;;;5033399;28;20034;-48
2022/01/31 12:24:43;;;;;;;4.00;0.98;;;6.40;99.90;;;;;;5032926;28;20080;-52
2022/01/31 12:27:16;;;;;;;3.35;1.30;;;6.40;99.90;;;;;;5033060;28;20022;-52
2022/01/31 12:29:45;;;;;;;1.27;0.50;;;6.40;99.90;;;;;;5032840;28;20028;-50
2022/01/31 12:32:18;;;;;;;0.70;0.65;;;6.50;99.90;;;;;;5048455;28;20104;-49
2022/01/31 12:34:55;;;;;;;0.95;0.60;;;6.40;99.90;;;;;;5032803;28;20053;-49
2022/01/31 12:37:34;;;;;;;6.53;1.02;;;6.40;99.90;;;;;;5032940;28;20337;-50
2022/01/31 12:40:06;;;;;;;3.10;0.95;;;6.40;99.90;;;;;;5033130;28;20025;-49
2022/01/31 12:45:37;;;;;;;1.85;1.58;;;6.30;99.90;;;;;;5033033;28;20129;-51
2022/01/31 12:50:38;;;;;;;2.08;0.63;;;6.40;99.90;;;;;;5031888;28;20030;-50
2022/01/31 12:53:06;;;;;;;0.45;0.45;;;6.40;99.90;;;;;;5032021;28;20033;-52
2022/01/31 12:55:33;;;;;;;3.10;0.68;;;6.40;99.90;;;;;;5012840;28;20105;-54
2022/01/31 12:58:00;;;;;;;3.15;1.00;;;6.40;99.90;;;;;;5012856;28;20030;-49
2022/01/31 13:00:33;;;;;;;1.40;0.77;;;6.40;99.90;;;;;;5012376;28;20443;-50
2022/01/31 13:02:59;;;;;;;4.32;1.10;;;6.50;99.90;;;;;;5012245;28;20032;-50
2022/01/31 13:05:39;;;;;;;5.07;0.77;;;6.50;99.90;;;;;;5013846;28;20097;-53
2022/01/31 13:08:21;;;;;;;1.38;0.50;;;6.50;99.90;;;;;;5031596;28;20021;-54
2022/01/31 13:10:47;;;;;;;2.22;0.70;;;6.50;99.90;;;;;;5032834;28;20036;-50
2022/01/31 13:13:13;;;;;;;2.97;0.98;;;6.50;99.90;;;;;;5031652;28;20030;-52
2022/01/31 13:15:39;;;;;;;0.60;0.60;;;6.50;99.90;;;;;;5032845;28;20025;-52
2022/01/31 13:18:09;;;;;;;1.77;0.77;;;6.60;99.90;;;;;;5031990;28;20029;-49
2022/01/31 13:20:36;;;;;;;1.60;0.50;;;6.60;99.90;;;;;;5046736;28;20112;-52
2022/01/31 13:23:04;;;;;;;2.85;0.50;;;6.60;99.90;;;;;;5031848;28;20034;-48
2022/01/31 13:25:30;;;;;;;0.75;0.60;;;6.60;99.90;;;;;;5025988;28;20022;-47
2022/01/31 13:27:57;;;;;;;1.58;0.65;;;6.60;99.90;;;;;;5031639;28;20083;-44
2022/01/31 13:30:25;;;;;;;7.07;3.92;;;6.50;99.90;;;;;;5030592;28;20028;-44
2022/01/31 13:32:51;;;;;;;1.05;0.68;;;6.50;99.90;;;;;;5030868;28;20393;-43